Time;durP1;ratioP1;P1;durP2;ratioP2;P2;SDS_P1;SDS_P2;PMS_P1;PMS_P2;Temp;Humidity;BMP_temperature;BMP_pressure;BME280_temperature;BME280_humidity;BME280_pressure;Samples;Min_cycle;Max_cycle;Signal;HPM_P1;HPM_P2
2022/10/07 00:03:35;;;;;;;7.25;1.83;;;;;;;9.91;100.00;101011.94;12210082;19;20006;-85
2022/10/07 00:07:36;;;;;;;11.10;2.10;;;;;;;9.89;100.00;101011.28;12190728;19;20003;-87
2022/10/07 00:11:38;;;;;;;8.57;2.20;;;;;;;9.87;100.00;101007.91;12209231;19;20003;-86
2022/10/07 00:15:40;;;;;;;6.78;1.85;;;;;;;9.85;100.00;101003.69;12210504;19;20003;-86
2022/10/07 00:19:42;;;;;;;11.55;2.20;;;;;;;9.84;100.00;101004.75;12187565;19;20011;-83
2022/10/07 00:23:45;;;;;;;3.90;1.50;;;;;;;9.81;100.00;101001.38;12209593;19;20011;-85
2022/10/07 00:27:49;;;;;;;7.07;1.90;;;;;;;9.78;100.00;100998.19;12211548;19;20002;-86
2022/10/07 00:31:50;;;;;;;7.90;1.90;;;;;;;9.75;100.00;100990.38;12192944;19;20023;-85
2022/10/07 00:35:58;;;;;;;13.93;2.38;;;;;;;9.71;100.00;100995.47;12209242;19;20034;-83
2022/10/07 00:40:02;;;;;;;8.65;2.67;;;;;;;9.66;100.00;100988.91;12210797;19;20011;-85
2022/10/07 00:44:36;;;;;;;8.20;2.13;;;;;;;9.57;100.00;100986.38;12187942;19;20027;-85
2022/10/07 00:48:38;;;;;;;11.70;1.90;;;;;;;9.48;100.00;100973.06;12207442;19;20017;-84
2022/10/07 00:52:45;;;;;;;11.13;1.92;;;;;;;9.41;100.00;100966.75;12187270;19;20082;-85
2022/10/07 00:56:49;;;;;;;8.85;2.00;;;;;;;9.34;100.00;100959.34;12209908;19;20010;-85
2022/10/07 01:00:51;;;;;;;7.70;2.40;;;;;;;9.29;100.00;100958.28;12210648;19;20094;-86
2022/10/07 01:04:54;;;;;;;7.60;1.92;;;;;;;9.23;100.00;100948.16;12189186;19;20010;-85
2022/10/07 01:08:56;;;;;;;11.65;2.40;;;;;;;9.18;100.00;100947.94;12210536;19;20010;-84
2022/10/07 01:13:06;;;;;;;12.07;2.70;;;;;;;9.15;100.00;100940.09;12207866;19;20018;-86
2022/10/07 01:17:33;;;;;;;5.40;1.52;;;;;;;9.11;100.00;100932.28;12186755;19;20381;-84
2022/10/07 01:21:53;;;;;;;6.05;1.65;;;;;;;9.02;100.00;100927.22;12263020;19;20600;-80
2022/10/07 01:26:10;;;;;;;9.88;2.00;;;;;;;8.97;100.00;100921.50;12243289;19;20002;-79
2022/10/07 01:30:14;;;;;;;5.85;1.70;;;;;;;8.93;100.00;100923.00;12243388;19;20045;-84
2022/10/07 01:34:17;;;;;;;5.35;1.85;;;;;;;8.90;100.00;100916.00;12210185;19;20030;-85
2022/10/07 01:38:22;;;;;;;6.63;1.73;;;;;;;8.88;100.00;100916.22;12185903;19;20034;-86
2022/10/07 01:42:26;;;;;;;12.35;1.80;;;;;;;8.86;100.00;100914.72;12204462;19;20451;-83
2022/10/07 01:46:29;;;;;;;5.03;1.55;;;;;;;8.83;100.00;100907.78;12193540;19;20455;-84
2022/10/07 01:50:35;;;;;;;4.07;1.60;;;;;;;8.74;100.00;100899.94;12209924;19;20606;-85
2022/10/07 01:55:27;;;;;;;7.50;1.58;;;;;;;8.65;100.00;100900.13;12206382;19;20006;-84
2022/10/07 02:00:10;;;;;;;6.80;1.60;;;;;;;8.56;100.00;100901.41;12187270;19;20535;-84
2022/10/07 02:04:29;;;;;;;5.25;1.77;;;;;;;8.48;100.00;100904.38;12214583;19;20630;-82
2022/10/07 02:08:44;;;;;;;11.18;1.83;;;;;;;8.34;100.00;100902.63;12193174;19;20042;-82
2022/10/07 02:12:54;;;;;;;7.40;2.25;;;;;;;8.28;100.00;100908.94;12215845;19;19998;-85
2022/10/07 02:17:02;;;;;;;11.40;1.63;;;;;;;8.26;100.00;100903.66;12188564;19;20509;-86
2022/10/07 02:21:06;;;;;;;7.47;1.40;;;;;;;8.25;100.00;100899.22;12216504;19;20533;-86
2022/10/07 02:25:10;;;;;;;4.55;1.30;;;;;;;8.30;100.00;100895.84;12211672;19;20021;-80
2022/10/07 02:29:14;;;;;;;10.63;1.80;;;;;;;8.25;100.00;100891.00;12200004;19;20010;-86
2022/10/07 02:33:18;;;;;;;9.60;2.92;;;;;;;8.25;100.00;100887.41;12259255;19;20011;-79
2022/10/07 02:37:23;;;;;;;;;;;;;;;8.25;100.00;100877.25;12231211;19;20011;-79
2022/10/07 02:41:50;;;;;;;6.68;2.05;;;;;;;8.28;100.00;100870.50;12197534;19;20546;-82
2022/10/07 02:46:03;;;;;;;12.77;2.50;;;;;;;8.41;100.00;100865.88;12225763;19;20009;-83
2022/10/07 02:50:09;;;;;;;11.20;2.45;;;;;;;8.49;100.00;100855.78;12216773;19;20014;-83
2022/10/07 02:54:13;;;;;;;7.43;2.00;;;;;;;8.50;100.00;100857.44;12238330;19;20014;-82
2022/10/07 02:58:16;;;;;;;8.05;1.73;;;;;;;8.49;100.00;100844.78;12237439;19;20064;-85
2022/10/07 03:02:26;;;;;;;6.13;2.15;;;;;;;8.53;100.00;100849.63;12198674;19;20050;-83
2022/10/07 03:06:28;;;;;;;10.63;1.92;;;;;;;8.56;100.00;100851.09;12221932;19;20029;-85
2022/10/07 03:10:32;;;;;;;7.13;1.80;;;;;;;8.65;100.00;100847.09;12200711;19;20021;-84
2022/10/07 03:14:34;;;;;;;7.83;2.50;;;;;;;8.72;100.00;100845.19;12223201;19;20011;-86
2022/10/07 03:18:37;;;;;;;6.47;2.00;;;;;;;8.78;100.00;100838.84;12220623;19;20375;-83
2022/10/07 03:23:02;;;;;;;9.32;2.00;;;;;;;8.76;100.00;100842.88;12196120;19;20043;-83
2022/10/07 03:27:06;;;;;;;6.03;1.65;;;;;;;8.75;100.00;100843.94;12217883;19;20041;-83
2022/10/07 03:31:11;;;;;;;9.13;2.05;;;;;;;8.75;100.00;100844.78;12218521;19;20014;-83
2022/10/07 03:35:18;;;;;;;8.80;2.10;;;;;;;8.74;100.00;100843.06;12196093;19;20010;-83
2022/10/07 03:39:20;;;;;;;9.25;2.20;;;;;;;8.66;100.00;100830.41;12222413;19;20504;-82
2022/10/07 03:43:22;;;;;;;6.93;1.92;;;;;;;8.62;100.00;100831.03;12217396;19;20003;-85
2022/10/07 03:47:26;;;;;;;8.52;2.15;;;;;;;8.59;100.00;100829.56;12195581;19;20006;-84
2022/10/07 03:51:27;;;;;;;;;;;;;;;8.56;100.00;100829.13;12214665;19;20003;-85
2022/10/07 03:55:29;;;;;;;5.13;2.00;;;;;;;8.53;100.00;100816.66;12205324;19;19939;-85
2022/10/07 03:59:31;;;;;;;10.85;2.05;;;;;;;8.42;100.00;100829.16;12215193;19;20030;-83
2022/10/07 04:03:34;;;;;;;6.50;2.10;;;;;;;8.22;100.00;100823.59;12210603;19;20006;-83
2022/10/07 04:07:36;;;;;;;11.13;2.50;;;;;;;8.06;100.00;100817.66;12190251;19;20006;-84
2022/10/07 04:11:40;;;;;;;7.75;1.92;;;;;;;7.94;100.00;100811.94;12209059;19;20456;-85
2022/10/07 04:15:42;;;;;;;6.45;1.80;;;;;;;7.84;100.00;100809.59;12211441;19;20085;-84
2022/10/07 04:19:44;;;;;;;6.25;2.03;;;;;;;7.78;100.00;100804.09;12189849;19;20018;-85
2022/10/07 04:23:46;;;;;;;6.43;2.63;;;;;;;7.76;100.00;100804.28;12205890;19;20078;-84
2022/10/07 04:27:53;;;;;;;3.95;2.28;;;;;;;7.78;100.00;100802.19;12210494;19;20358;-83
2022/10/07 04:31:57;;;;;;;8.38;2.28;;;;;;;7.85;100.00;100797.59;12187485;19;20028;-84
2022/10/07 04:36:07;;;;;;;9.18;2.10;;;;;;;7.94;100.00;100787.22;12212401;19;20357;-84
2022/10/07 04:40:18;;;;;;;7.35;2.45;;;;;;;8.06;100.00;100785.59;12208382;19;20013;-85
2022/10/07 04:44:21;;;;;;;6.90;2.65;;;;;;;8.14;100.00;100782.63;12186911;19;20509;-85
2022/10/07 04:48:32;;;;;;;7.47;2.28;;;;;;;8.21;100.00;100772.50;12208384;19;20010;-84
2022/10/07 04:52:34;;;;;;;11.05;2.42;;;;;;;8.29;100.00;100787.91;12190091;19;20015;-84
2022/10/07 04:56:35;;;;;;;7.90;2.45;;;;;;;8.31;100.00;100784.97;12213750;19;20010;-83
2022/10/07 05:00:43;;;;;;;6.68;2.67;;;;;;;8.33;100.00;100788.31;12207560;19;20024;-84
2022/10/07 05:04:44;;;;;;;6.45;2.60;;;;;;;8.33;100.00;100775.47;12188699;19;20007;-84
2022/10/07 05:08:46;;;;;;;5.90;2.60;;;;;;;8.38;100.00;100783.91;12231991;19;20068;-82
2022/10/07 05:12:49;;;;;;;6.10;2.72;;;;;;;8.40;100.00;100778.22;12222888;19;20007;-83
2022/10/07 05:16:57;;;;;;;11.65;2.55;;;;;;;8.39;100.00;100780.13;12190062;19;20010;-84
2022/10/07 05:21:04;;;;;;;8.25;2.95;;;;;;;8.35;100.00;100773.31;12200703;19;20023;-82
2022/10/07 05:25:08;;;;;;;11.20;2.53;;;;;;;8.31;100.00;100771.22;12194085;19;20014;-82
2022/10/07 05:29:09;;;;;;;12.65;3.28;;;;;;;8.34;100.00;100782.63;12175142;19;20022;-84
2022/10/07 05:33:17;;;;;;;4.03;2.40;;;;;;;8.36;100.00;100779.69;12207662;19;20017;-83
2022/10/07 05:37:19;;;;;;;10.95;3.60;;;;;;;8.33;100.00;100764.47;12208288;19;20017;-84
2022/10/07 05:41:21;;;;;;;9.25;3.17;;;;;;;8.35;100.00;100770.56;12188987;19;20018;-80
2022/10/07 05:45:24;;;;;;;8.23;3.28;;;;;;;8.36;100.00;100757.72;12210285;19;20038;-83
2022/10/07 05:49:27;;;;;;;12.95;3.70;;;;;;;8.36;100.00;100753.06;12211015;19;20074;-83
2022/10/07 05:53:30;;;;;;;7.63;3.28;;;;;;;8.33;100.00;100755.38;12191478;19;20010;-84
2022/10/07 05:57:33;;;;;;;8.35;3.40;;;;;;;8.28;100.00;100745.03;12214503;19;20397;-84
2022/10/07 06:01:35;;;;;;;7.05;3.10;;;;;;;8.22;100.00;100752.22;12191975;19;20014;-84
2022/10/07 06:05:44;;;;;;;11.63;2.90;;;;;;;8.17;100.00;100737.44;12210775;19;20098;-83
2022/10/07 06:14:07;;;;;;;11.50;2.72;;;;;;;8.20;100.00;100734.25;12191923;19;20524;-83
2022/10/07 06:18:09;;;;;;;12.93;3.65;;;;;;;8.20;100.00;100732.34;12211104;19;20510;-83
2022/10/07 06:22:12;;;;;;;7.22;3.15;;;;;;;8.33;100.00;100741.63;12206767;19;20006;-83
2022/10/07 06:26:15;;;;;;;5.07;2.70;;;;;;;8.46;100.00;100736.19;12186091;19;20411;-82
2022/10/07 06:30:17;;;;;;;12.05;3.67;;;;;;;8.56;100.00;100743.97;12219785;19;20024;-85
2022/10/07 06:34:19;;;;;;;11.40;4.18;;;;;;;8.58;100.00;100739.97;12212095;19;20018;-84
2022/10/07 06:38:21;;;;;;;13.18;3.65;;;;;;;8.72;100.00;100739.94;12182695;19;20444;-82
2022/10/07 06:42:23;;;;;;;9.13;3.73;;;;;;;8.88;100.00;100742.22;12206099;19;20028;-83
2022/10/07 06:46:30;;;;;;;6.00;2.88;;;;;;;9.04;100.00;100743.63;12220150;19;20375;-81
2022/10/07 06:50:33;;;;;;;6.43;3.13;;;;;;;9.12;100.00;100744.22;12198657;19;20011;-83
2022/10/07 06:54:34;;;;;;;10.20;3.08;;;;;;;9.12;100.00;100746.97;12217352;19;20348;-82
2022/10/07 06:58:37;;;;;;;9.48;4.10;;;;;;;9.09;100.00;100744.66;12195952;19;20038;-82
2022/10/07 07:02:40;;;;;;;10.25;3.70;;;;;;;9.12;100.00;100749.72;12215547;19;20014;-83
2022/10/07 07:06:41;;;;;;;13.80;4.38;;;;;;;9.21;100.00;100744.00;12218335;19;20389;-83
2022/10/07 07:10:45;;;;;;;11.65;4.47;;;;;;;9.20;100.00;100736.81;12189505;19;20538;-83
2022/10/07 07:14:47;;;;;;;12.85;4.47;;;;;;;9.20;100.00;100742.31;12219114;19;20022;-83
2022/10/07 07:18:53;;;;;;;14.15;4.40;;;;;;;9.30;100.00;100743.53;12217730;19;20011;-81
2022/10/07 07:22:56;;;;;;;13.77;4.82;;;;;;;9.40;100.00;100743.06;12193854;19;20010;-83
2022/10/07 07:26:58;;;;;;;18.42;5.18;;;;;;;9.45;100.00;100743.22;12213841;19;20124;-83
2022/10/07 07:31:08;;;;;;;12.32;4.80;;;;;;;9.49;100.00;100736.25;12216703;19;20010;-82
2022/10/07 07:35:10;;;;;;;10.40;4.18;;;;;;;9.64;100.00;100737.84;12191812;19;20007;-82
2022/10/07 07:39:14;;;;;;;14.10;4.63;;;;;;;9.84;100.00;100738.56;12236163;19;20048;-77
2022/10/07 07:43:17;;;;;;;14.38;4.35;;;;;;;10.02;100.00;100735.91;12268060;19;20014;-78
2022/10/07 07:47:20;;;;;;;13.00;5.13;;;;;;;10.26;100.00;100733.34;12214638;19;20160;-82
2022/10/07 07:51:23;;;;;;;13.45;4.43;;;;;;;10.44;100.00;100738.97;12224307;19;20018;-83
2022/10/07 07:55:25;;;;;;;18.20;4.93;;;;;;;10.63;100.00;100733.47;12224073;19;20483;-85
2022/10/07 07:59:30;;;;;;;17.98;5.20;;;;;;;10.81;100.00;100730.72;12201687;19;20018;-84
2022/10/07 08:03:36;;;;;;;11.93;4.75;;;;;;;11.03;100.00;100731.09;12220646;19;20029;-83
2022/10/07 08:07:38;;;;;;;12.93;4.82;;;;;;;11.12;100.00;100728.88;12198833;19;20037;-81
2022/10/07 08:11:44;;;;;;;11.93;4.47;;;;;;;11.32;100.00;100729.47;12217399;19;20017;-83
2022/10/07 08:15:48;;;;;;;9.43;4.57;;;;;;;11.53;100.00;100719.00;12220082;19;20031;-85
2022/10/07 08:19:50;;;;;;;11.30;5.25;;;;;;;11.76;100.00;100708.03;12195299;19;20737;-83
2022/10/07 08:23:56;;;;;;;13.27;4.77;;;;;;;12.07;100.00;100708.84;12218462;19;20031;-84
2022/10/07 08:28:02;;;;;;;12.43;4.53;;;;;;;12.30;100.00;100717.19;12220375;19;20011;-83
2022/10/07 08:32:04;;;;;;;8.68;4.20;;;;;;;12.54;100.00;100712.50;12194808;19;20416;-81
2022/10/07 08:36:07;;;;;;;11.60;4.78;;;;;;;12.77;100.00;100708.88;12215756;19;20531;-83
2022/10/07 08:40:14;;;;;;;11.30;4.47;;;;;;;13.08;100.00;100706.75;12210825;19;20412;-82
2022/10/07 08:44:36;;;;;;;12.25;4.38;;;;;;;13.13;100.00;100715.19;12238927;19;20018;-76
2022/10/07 08:48:40;;;;;;;10.73;4.03;;;;;;;13.35;100.00;100704.28;12268295;19;20010;-77
2022/10/07 08:52:58;;;;;;;15.40;4.30;;;;;;;13.49;97.71;100704.84;12211035;19;20014;-81
2022/10/07 08:57:11;;;;;;;12.77;4.40;;;;;;;13.62;98.57;100704.56;12215535;19;20049;-81
2022/10/07 09:01:40;;;;;;;14.70;4.10;;;;;;;13.81;96.94;100693.25;12212715;19;20068;-81
2022/10/07 09:05:48;;;;;;;13.27;4.13;;;;;;;14.09;94.56;100684.88;12192758;19;20067;-80
2022/10/07 09:09:57;;;;;;;9.52;3.70;;;;;;;14.33;92.15;100684.69;12212176;19;20011;-81
2022/10/07 09:14:11;;;;;;;9.27;3.63;;;;;;;14.56;91.70;100681.75;12190874;19;20011;-80
2022/10/07 09:18:31;;;;;;;7.60;3.55;;;;;;;14.91;90.33;100676.97;12213884;19;20034;-82
2022/10/07 09:22:41;;;;;;;10.55;3.55;;;;;;;15.07;88.05;100669.66;12209605;19;20009;-81
2022/10/07 09:26:42;;;;;;;9.52;3.60;;;;;;;15.14;87.17;100673.06;12208383;19;20010;-83
2022/10/07 09:30:44;;;;;;;10.48;3.40;;;;;;;15.22;85.79;100664.28;12211257;19;20014;-82
2022/10/07 09:34:46;;;;;;;10.40;4.00;;;;;;;15.06;85.12;100656.91;12186473;19;20139;-82
2022/10/07 09:38:51;;;;;;;14.35;3.72;;;;;;;15.22;85.37;100654.03;12206600;19;20007;-81
2022/10/07 09:42:53;;;;;;;12.38;3.92;;;;;;;15.43;84.52;100648.69;12209197;19;20006;-80
2022/10/07 09:46:58;;;;;;;14.18;3.63;;;;;;;15.58;82.32;100648.84;12190745;19;20027;-80
2022/10/07 09:51:16;;;;;;;13.50;3.90;;;;;;;15.71;80.24;100640.13;12211548;19;20014;-82
2022/10/07 09:55:37;;;;;;;8.50;3.10;;;;;;;15.88;80.03;100645.56;12209201;19;20010;-80
2022/10/07 09:59:39;;;;;;;9.68;3.72;;;;;;;16.07;80.42;100642.38;12188208;19;20038;-81
2022/10/07 10:03:40;;;;;;;10.90;3.53;;;;;;;16.37;78.87;100639.81;12207323;19;20739;-82
2022/10/07 10:07:46;;;;;;;10.13;3.13;;;;;;;16.49;75.97;100647.94;12189448;19;20011;-81
2022/10/07 10:12:12;;;;;;;9.27;3.70;;;;;;;16.79;73.91;100636.16;12205146;19;20015;-81
2022/10/07 10:16:23;;;;;;;9.13;3.75;;;;;;;16.77;72.52;100635.59;12209452;19;20019;-83
2022/10/07 10:20:28;;;;;;;14.93;3.40;;;;;;;16.92;73.17;100626.47;12211146;19;20023;-82
2022/10/07 10:29:18;;;;;;;6.63;2.60;;;;;;;17.25;70.36;100611.28;12222956;19;20364;-82
2022/10/07 10:33:58;;;;;;;13.00;3.00;;;;;;;17.28;70.48;100610.75;12200813;19;20010;-80
2022/10/07 10:38:34;;;;;;;10.30;3.08;;;;;;;17.27;68.63;100597.91;12214148;19;20011;-83
2022/10/07 10:42:47;;;;;;;10.85;3.03;;;;;;;17.53;69.82;100592.38;12214596;19;20003;-82
2022/10/07 10:47:02;;;;;;;8.98;2.97;;;;;;;17.70;68.36;100589.34;12220787;19;20023;-83
2022/10/07 10:51:13;;;;;;;9.23;2.10;;;;;;;18.03;66.47;100579.59;12198306;19;20035;-82
2022/10/07 10:55:24;;;;;;;10.38;2.33;;;;;;;18.40;64.80;100576.44;12222321;19;20030;-82
2022/10/07 10:59:51;;;;;;;7.82;1.90;;;;;;;18.72;63.43;100568.81;12202559;19;20007;-81
2022/10/07 11:04:03;;;;;;;6.35;1.73;;;;;;;18.99;60.61;100566.47;12218952;19;20073;-84
2022/10/07 11:08:20;;;;;;;8.32;2.58;;;;;;;19.02;61.00;100554.72;12203395;19;20007;-82
2022/10/07 11:12:38;;;;;;;8.73;2.40;;;;;;;19.15;60.87;100557.97;12222517;19;20014;-83
2022/10/07 11:16:43;;;;;;;;;;;;;;;18.93;59.37;100550.03;12227567;19;20641;-82
2022/10/07 11:20:47;;;;;;;10.63;3.50;;;;;;;18.90;60.00;100551.44;12199021;19;19938;-84
2022/10/07 11:24:56;;;;;;;7.25;1.98;;;;;;;19.04;60.93;100534.88;12217443;19;20011;-82
2022/10/07 11:29:02;;;;;;;8.98;2.83;;;;;;;19.25;60.85;100530.00;12223778;19;20321;-83
2022/10/07 11:33:14;;;;;;;8.43;2.47;;;;;;;19.77;59.43;100523.72;12213064;19;20476;-83
2022/10/07 11:37:30;;;;;;;5.88;2.22;;;;;;;20.31;57.63;100520.91;12217444;19;20496;-83
2022/10/07 11:41:39;;;;;;;9.25;2.40;;;;;;;20.59;57.09;100508.03;12189367;19;20034;-83
2022/10/07 11:45:51;;;;;;;5.90;2.10;;;;;;;20.75;57.11;100503.03;12219220;19;20387;-83
2022/10/07 11:50:01;;;;;;;10.27;2.53;;;;;;;20.81;57.14;100494.25;12216431;19;20023;-84
2022/10/07 11:54:06;;;;;;;6.38;2.40;;;;;;;20.91;57.65;100482.06;12195967;19;20122;-84
2022/10/07 11:58:31;;;;;;;12.98;2.63;;;;;;;21.08;55.43;100478.75;12219229;19;20030;-83
2022/10/07 12:02:39;;;;;;;7.10;1.73;;;;;;;21.38;53.80;100469.84;12195618;19;20468;-83
2022/10/07 12:07:18;;;;;;;5.88;1.88;;;;;;;22.12;51.46;100466.28;12215476;19;20010;-82
2022/10/07 12:11:23;;;;;;;8.95;2.13;;;;;;;22.46;51.24;100448.22;12193798;19;20007;-81
2022/10/07 12:15:37;;;;;;;7.88;2.08;;;;;;;23.25;49.00;100441.34;12217572;19;20014;-83
2022/10/07 12:19:42;;;;;;;5.75;1.73;;;;;;;23.59;48.80;100429.50;12213750;19;20026;-84
2022/10/07 12:23:44;;;;;;;6.40;2.07;;;;;;;23.57;47.65;100410.09;12187777;19;20035;-84
2022/10/07 12:27:53;;;;;;;9.20;1.90;;;;;;;23.96;48.11;100404.84;12214751;19;20010;-82
2022/10/07 12:31:55;;;;;;;14.02;3.05;;;;;;;23.86;45.94;100401.19;12212307;19;20006;-84
2022/10/07 12:35:57;;;;;;;8.38;2.13;;;;;;;24.11;46.71;100404.41;12191015;19;20011;-84
2022/10/07 12:40:04;;;;;;;7.47;2.23;;;;;;;24.05;46.40;100394.47;12213749;19;20389;-83
2022/10/07 12:44:33;;;;;;;9.38;2.47;;;;;;;24.03;45.76;100388.31;12188433;19;20260;-83
2022/10/07 12:49:01;;;;;;;6.47;2.80;;;;;;;23.84;45.42;100382.97;12237932;19;20006;-79
2022/10/07 12:53:03;;;;;;;7.97;2.30;;;;;;;24.03;46.23;100377.06;12249366;19;19998;-81
2022/10/07 12:57:11;;;;;;;8.32;2.28;;;;;;;24.14;45.52;100364.34;12237642;19;20097;-82
2022/10/07 13:01:43;;;;;;;11.63;2.50;;;;;;;23.59;47.18;100357.19;12219014;19;20002;-84
2022/10/07 13:06:10;;;;;;;9.48;2.72;;;;;;;22.85;47.34;100354.06;12197398;19;20007;-84
2022/10/07 13:10:21;;;;;;;17.48;2.83;;;;;;;22.42;47.75;100360.94;12218641;19;20086;-84
2022/10/07 13:14:29;;;;;;;6.50;2.15;;;;;;;21.81;49.80;100354.66;12191828;19;20032;-85
2022/10/07 13:18:47;;;;;;;7.70;2.88;;;;;;;21.71;50.23;100346.44;12216355;19;20015;-85
2022/10/07 13:22:49;;;;;;;8.13;2.50;;;;;;;21.95;50.31;100343.44;12211500;19;20747;-84
2022/10/07 13:26:51;;;;;;;6.93;2.13;;;;;;;22.30;50.09;100333.41;12189637;19;20010;-83
2022/10/07 13:30:53;;;;;;;6.85;2.67;;;;;;;22.00;50.83;100334.06;12215673;19;20014;-83
2022/10/07 13:35:03;;;;;;;6.43;2.40;;;;;;;21.39;52.21;100336.16;12212954;19;20562;-84
2022/10/07 13:39:22;;;;;;;7.60;2.58;;;;;;;20.94;53.71;100328.25;12192667;19;20050;-83
2022/10/07 13:43:26;;;;;;;7.05;2.50;;;;;;;20.69;55.33;100309.06;12206998;19;20613;-84
2022/10/07 13:47:35;;;;;;;11.32;2.33;;;;;;;20.45;56.17;100301.56;12188379;19;20035;-83
2022/10/07 13:51:39;;;;;;;7.93;2.72;;;;;;;20.38;57.41;100298.31;12210865;19;20011;-84
2022/10/07 13:55:44;;;;;;;9.38;2.40;;;;;;;20.36;57.36;100286.59;12223065;19;20018;-82
2022/10/07 13:59:47;;;;;;;6.40;2.72;;;;;;;20.33;57.65;100287.19;12205543;19;20499;-83
2022/10/07 14:04:15;;;;;;;8.65;2.13;;;;;;;20.29;57.74;100279.72;12222078;19;20024;-80
2022/10/07 14:08:21;;;;;;;6.22;2.20;;;;;;;20.13;59.02;100279.09;12202351;19;20078;-83
2022/10/07 14:12:36;;;;;;;5.88;2.55;;;;;;;19.89;60.12;100268.81;12221363;19;20417;-84
2022/10/07 14:16:38;;;;;;;9.25;2.80;;;;;;;19.84;60.00;100254.91;12224281;19;20034;-84
2022/10/07 14:20:46;;;;;;;8.57;2.75;;;;;;;19.78;61.19;100253.28;12198181;19;20011;-83
2022/10/07 14:24:53;;;;;;;10.05;2.08;;;;;;;19.79;61.92;100243.78;12219855;19;20094;-83
2022/10/07 14:28:55;;;;;;;7.90;2.45;;;;;;;19.89;61.24;100232.44;12224581;19;20476;-83
2022/10/07 14:37:33;;;;;;;4.75;2.20;;;;;;;19.97;62.16;100220.59;12222406;19;20014;-83
2022/10/07 14:41:35;;;;;;;5.55;2.33;;;;;;;20.01;61.42;100218.00;12194999;19;20018;-82
2022/10/07 14:45:36;;;;;;;9.00;3.45;;;;;;;20.11;61.56;100203.03;12215991;19;20010;-84
2022/10/07 14:49:42;;;;;;;6.73;2.30;;;;;;;20.21;61.50;100195.31;12221104;19;20014;-82
2022/10/07 14:53:47;;;;;;;9.00;2.70;;;;;;;20.24;62.07;100193.88;12198301;19;20361;-82
2022/10/07 14:57:49;;;;;;;5.43;2.53;;;;;;;20.21;63.17;100197.28;12222034;19;20086;-82
2022/10/07 15:01:51;;;;;;;8.43;2.77;;;;;;;20.08;63.48;100184.91;12217772;19;20011;-84
2022/10/07 15:05:53;;;;;;;7.28;2.72;;;;;;;19.98;63.97;100190.66;12197883;19;20002;-84
2022/10/07 15:09:54;;;;;;;7.23;3.50;;;;;;;19.86;64.69;100184.69;12216471;19;20066;-83
2022/10/07 15:13:56;;;;;;;7.70;3.08;;;;;;;19.72;65.22;100179.00;12217930;19;20010;-83
2022/10/07 15:17:58;;;;;;;12.48;4.05;;;;;;;19.61;66.03;100180.28;12197076;19;20022;-83
2022/10/07 15:22:00;;;;;;;7.03;3.03;;;;;;;19.57;66.28;100171.63;12215673;19;20007;-83
2022/10/07 15:26:02;;;;;;;6.07;2.37;;;;;;;19.53;66.69;100165.81;12213403;19;20416;-84
2022/10/07 15:30:06;;;;;;;9.40;3.03;;;;;;;19.42;67.29;100163.47;12221266;19;20010;-82
2022/10/07 15:34:12;;;;;;;8.32;3.03;;;;;;;19.33;67.31;100160.50;12217514;19;20011;-82
2022/10/07 15:38:14;;;;;;;9.15;3.22;;;;;;;19.26;67.05;100165.66;12197464;19;20035;-84
2022/10/07 15:42:16;;;;;;;8.35;2.72;;;;;;;19.13;66.95;100170.84;12217290;19;20384;-83
2022/10/07 15:46:18;;;;;;;8.15;2.70;;;;;;;19.00;67.45;100168.75;12212530;19;20062;-84
2022/10/07 15:50:20;;;;;;;7.38;2.95;;;;;;;18.93;67.79;100167.44;12197538;19;20038;-82
2022/10/07 15:54:22;;;;;;;7.00;2.63;;;;;;;18.84;69.42;100164.47;12217425;19;20011;-83
2022/10/07 15:58:29;;;;;;;8.40;3.13;;;;;;;18.74;70.65;100164.56;12255542;19;20040;-79
2022/10/07 16:02:32;;;;;;;14.63;3.92;;;;;;;18.64;70.85;100171.91;12250691;19;20200;-80
2022/10/07 16:06:35;;;;;;;8.18;3.20;;;;;;;18.53;71.40;100161.97;12254322;19;20017;-82
2022/10/07 16:10:37;;;;;;;11.95;4.38;;;;;;;18.44;71.91;100150.63;12215736;19;20050;-83
2022/10/07 16:14:39;;;;;;;9.38;3.10;;;;;;;18.31;72.68;100148.50;12198722;19;20014;-84
2022/10/07 16:18:43;;;;;;;5.35;2.80;;;;;;;18.21;72.79;100152.22;12217956;19;20010;-84
2022/10/07 16:22:44;;;;;;;8.32;2.90;;;;;;;18.09;74.08;100151.78;12217028;19;20370;-84
2022/10/07 16:26:49;;;;;;;6.50;2.50;;;;;;;17.93;75.31;100155.78;12193550;19;20014;-83
2022/10/07 16:30:51;;;;;;;7.82;2.78;;;;;;;17.74;76.27;100156.47;12222270;19;20006;-83
2022/10/07 16:34:52;;;;;;;10.55;3.60;;;;;;;17.51;77.32;100151.59;12217768;19;20014;-83
2022/10/07 16:38:58;;;;;;;9.20;3.00;;;;;;;17.29;78.95;100149.22;12198833;19;20010;-82
2022/10/07 16:43:00;;;;;;;8.32;2.92;;;;;;;17.02;80.05;100147.66;12215599;19;20033;-84
2022/10/07 16:47:02;;;;;;;10.35;3.17;;;;;;;16.78;81.02;100155.00;12214397;19;20074;-83
2022/10/07 16:51:08;;;;;;;12.23;3.60;;;;;;;16.54;82.16;100154.75;12194072;19;20032;-83
2022/10/07 16:55:11;;;;;;;14.55;3.95;;;;;;;16.29;83.44;100147.25;12216520;19;20018;-82
2022/10/07 16:59:19;;;;;;;10.45;3.45;;;;;;;16.09;84.74;100139.75;12197143;19;20018;-83
2022/10/07 17:03:23;;;;;;;14.68;3.75;;;;;;;15.88;85.54;100137.00;12219524;19;20090;-83
2022/10/07 17:07:25;;;;;;;11.07;4.60;;;;;;;15.75;86.68;100147.81;12215856;19;20006;-84
2022/10/07 17:11:30;;;;;;;11.48;4.93;;;;;;;15.60;87.45;100141.06;12192070;19;20038;-82
2022/10/07 17:15:31;;;;;;;21.23;6.90;;;;;;;15.49;88.00;100148.53;12215540;19;20018;-83
2022/10/07 17:19:36;;;;;;;12.43;5.32;;;;;;;15.39;88.73;100151.31;12213914;19;20022;-82
2022/10/07 17:23:38;;;;;;;8.30;4.32;;;;;;;15.27;89.59;100142.38;12188331;19;20014;-81
2022/10/07 17:27:39;;;;;;;10.55;4.72;;;;;;;15.17;90.81;100139.56;12208840;19;20010;-84
2022/10/07 17:31:42;;;;;;;15.15;4.65;;;;;;;15.06;91.48;100152.59;12209422;19;20014;-83
2022/10/07 17:35:44;;;;;;;13.05;5.40;;;;;;;14.96;92.12;100141.44;12191836;19;20003;-84
2022/10/07 17:39:47;;;;;;;13.25;4.78;;;;;;;14.87;93.25;100140.28;12212218;19;20015;-83
2022/10/07 17:43:52;;;;;;;21.92;5.25;;;;;;;14.77;94.30;100144.66;12210712;19;20507;-81
2022/10/07 17:47:56;;;;;;;15.52;5.13;;;;;;;14.72;94.27;100138.25;12185900;19;20006;-83
2022/10/07 17:51:58;;;;;;;14.55;5.45;;;;;;;14.69;95.23;100125.75;12206869;19;20375;-82
2022/10/07 17:56:03;;;;;;;12.82;5.07;;;;;;;14.70;95.85;100130.22;12208213;19;20095;-83
2022/10/07 18:00:06;;;;;;;12.68;4.90;;;;;;;14.70;96.47;100115.53;12213273;19;20007;-79
2022/10/07 18:04:17;;;;;;;14.07;4.90;;;;;;;14.71;97.16;100126.34;12264168;19;20035;-79
2022/10/07 18:08:25;;;;;;;15.80;5.70;;;;;;;14.71;97.09;100128.28;12195211;19;20083;-84
2022/10/07 18:16:47;;;;;;;9.55;5.13;;;;;;;14.73;98.34;100129.69;12214430;19;20010;-84
2022/10/07 18:20:50;;;;;;;14.23;5.13;;;;;;;14.75;98.49;100135.81;12188346;19;20515;-84
2022/10/07 18:24:55;;;;;;;9.10;5.43;;;;;;;14.74;99.10;100127.75;12207685;19;20018;-84
2022/10/07 18:29:00;;;;;;;10.10;4.68;;;;;;;14.74;99.49;100128.56;12222693;19;20041;-83
2022/10/07 18:33:01;;;;;;;11.77;5.55;;;;;;;14.71;99.69;100115.25;12182329;19;20037;-83
2022/10/07 18:37:03;;;;;;;14.95;4.70;;;;;;;14.69;100.00;100108.28;12206797;19;20030;-83
2022/10/07 18:41:11;;;;;;;12.52;5.32;;;;;;;14.69;100.00;100108.28;12205999;19;20010;-84
2022/10/07 18:45:13;;;;;;;10.50;5.47;;;;;;;14.68;100.00;100110.22;12215393;19;20031;-83
2022/10/07 18:49:15;;;;;;;8.88;5.05;;;;;;;14.67;100.00;100108.56;12209472;19;20007;-83
2022/10/07 18:53:16;;;;;;;12.10;5.50;;;;;;;14.65;100.00;100102.44;12191692;19;20471;-83
2022/10/07 18:57:19;;;;;;;13.98;5.45;;;;;;;14.63;100.00;100109.38;12216313;19;20565;-83
2022/10/07 19:01:23;;;;;;;12.45;4.85;;;;;;;14.59;100.00;100101.59;12218341;19;20725;-84
2022/10/07 19:05:25;;;;;;;8.77;4.72;;;;;;;14.56;100.00;100099.34;12192682;19;20015;-84
2022/10/07 19:09:30;;;;;;;13.80;5.43;;;;;;;14.51;100.00;100107.63;12216871;19;20015;-85